Time;durP1;ratioP1;P1;durP2;ratioP2;P2;SDS_P1;SDS_P2;PMS_P1;PMS_P2;Temp;Humidity;BMP_temperature;BMP_pressure;BME280_temperature;BME280_humidity;BME280_pressure;Samples;Min_cycle;Max_cycle;Signal;HPM_P1;HPM_P2
2023/07/11 00:00:52;;;;;;;0.50;0.50;;;16.90;99.90;;;;;;5066559;28;20051;-74
2023/07/11 00:03:18;;;;;;;0.43;0.20;;;16.90;99.90;;;;;;5105091;28;20043;-74
2023/07/11 00:05:44;;;;;;;;;;;16.90;99.90;;;;;;5103703;28;20121;-74
2023/07/11 00:08:10;;;;;;;0.38;0.20;;;16.90;99.90;;;;;;5083220;28;19923;-74
2023/07/11 00:10:35;;;;;;;0.52;0.30;;;16.90;99.90;;;;;;5096292;28;20456;-74
2023/07/11 00:13:01;;;;;;;;;;;16.90;99.90;;;;;;5095204;28;20455;-74
2023/07/11 00:15:27;;;;;;;0.38;0.30;;;16.90;99.90;;;;;;5096874;28;20498;-74
2023/07/11 00:17:53;;;;;;;0.35;0.20;;;16.90;98.40;;;;;;5084616;28;20116;-74
2023/07/11 00:20:19;;;;;;;;;;;17.00;88.60;;;;;;5063134;28;20035;-74
2023/07/11 00:22:45;;;;;;;0.77;0.30;;;17.00;94.30;;;;;;5100578;28;19969;-74
2023/07/11 00:25:12;;;;;;;0.65;0.40;;;17.00;78.60;;;;;;5075795;28;20097;-74
2023/07/11 00:27:38;;;;;;;0.70;0.30;;;17.00;61.10;;;;;;5101868;28;20097;-74
2023/07/11 00:30:05;;;;;;;0.25;0.20;;;17.00;27.10;;;;;;5081316;28;20048;-74
2023/07/11 00:32:31;;;;;;;0.52;0.38;;;17.00;3.80;;;;;;5087945;28;20482;-74
2023/07/11 00:34:57;;;;;;;;;;;17.00;1.00;;;;;;5102325;28;20050;-74
2023/07/11 00:37:22;;;;;;;0.68;0.30;;;17.10;1.00;;;;;;5077540;28;20277;-74
2023/07/11 00:39:48;;;;;;;0.30;0.10;;;17.10;1.00;;;;;;5097268;28;20201;-74
2023/07/11 00:42:14;;;;;;;;;;;17.10;1.00;;;;;;5100049;28;20497;-74
2023/07/11 00:44:49;;;;;;;0.55;0.30;;;17.10;99.90;;;;;;5105895;28;20006;-74
2023/07/11 00:47:14;;;;;;;0.38;0.30;;;17.10;1.00;;;;;;5076806;28;20036;-74
2023/07/11 00:49:40;;;;;;;;;;;17.10;1.00;;;;;;5103948;28;20064;-74
2023/07/11 00:52:07;;;;;;;0.63;0.32;;;17.20;1.00;;;;;;5098239;28;19916;-74
2023/07/11 00:54:35;;;;;;;0.73;0.30;;;17.20;12.50;;;;;;5091132;28;20075;-74
2023/07/11 00:57:04;;;;;;;0.43;0.25;;;17.20;14.40;;;;;;5056554;28;20068;-74
2023/07/11 00:59:30;;;;;;;0.82;0.20;;;17.20;13.80;;;;;;5096840;28;20061;-74
2023/07/11 01:02:06;;;;;;;0.20;0.20;;;17.20;23.10;;;;;;5083632;28;20043;-74
2023/07/11 01:04:32;;;;;;;0.73;0.32;;;17.10;23.20;;;;;;5068749;28;20058;-74
2023/07/11 01:06:57;;;;;;;;;;;17.10;29.50;;;;;;5093890;28;20044;-74
2023/07/11 01:09:23;;;;;;;0.63;0.30;;;17.00;32.30;;;;;;5060903;28;20010;-75
2023/07/11 01:11:51;;;;;;;;;;;16.90;41.90;;;;;;5100095;28;20036;-74
2023/07/11 01:14:17;;;;;;;0.60;0.40;;;16.90;69.10;;;;;;5102239;28;19920;-74
2023/07/11 01:16:45;;;;;;;;;;;16.90;93.60;;;;;;5103598;28;20126;-74
2023/07/11 01:19:11;;;;;;;0.32;0.30;;;16.90;99.90;;;;;;5095107;28;19922;-74
2023/07/11 01:21:37;;;;;;;0.32;0.30;;;16.90;99.90;;;;;;5083381;28;20048;-74
2023/07/11 01:24:03;;;;;;;;;;;16.90;99.90;;;;;;5099017;28;20036;-74
2023/07/11 01:26:29;;;;;;;0.30;0.30;;;16.90;99.90;;;;;;5099328;28;19916;-74
2023/07/11 01:28:56;;;;;;;0.50;0.32;;;16.90;99.90;;;;;;5072382;28;20044;-74
2023/07/11 01:31:22;;;;;;;0.22;0.13;;;16.90;99.90;;;;;;5084474;28;20544;-74
2023/07/11 01:33:48;;;;;;;0.40;0.30;;;16.90;99.90;;;;;;5102801;28;20115;-74
2023/07/11 01:36:14;;;;;;;;;;;17.00;99.90;;;;;;5093873;28;20134;-74
2023/07/11 01:38:40;;;;;;;0.98;0.40;;;17.00;99.90;;;;;;5093819;28;19930;-74
2023/07/11 01:41:05;;;;;;;;;;;17.00;99.90;;;;;;5099841;28;20048;-74
2023/07/11 01:43:32;;;;;;;0.63;0.30;;;17.10;99.90;;;;;;5103416;28;19926;-74
2023/07/11 01:45:57;;;;;;;0.93;0.40;;;17.10;99.90;;;;;;5094952;28;20111;-74
2023/07/11 01:48:23;;;;;;;;;;;17.10;99.90;;;;;;5074442;28;20443;-74
2023/07/11 01:50:49;;;;;;;0.52;0.40;;;17.20;99.90;;;;;;5095055;28;19927;-74
2023/07/11 01:53:14;;;;;;;0.35;0.35;;;17.30;99.90;;;;;;5097036;28;20335;-74
2023/07/11 01:55:40;;;;;;;;;;;17.20;99.90;;;;;;5063288;28;20081;-74
2023/07/11 01:58:06;;;;;;;0.30;0.20;;;17.20;99.90;;;;;;5098292;28;19962;-74
2023/07/11 02:00:31;;;;;;;;;;;17.20;99.90;;;;;;5106625;28;20076;-74
2023/07/11 02:02:57;;;;;;;0.82;0.40;;;17.20;99.90;;;;;;5103209;28;19919;-74
2023/07/11 02:05:23;;;;;;;0.52;0.30;;;17.20;99.90;;;;;;5070283;28;20565;-74
2023/07/11 02:07:49;;;;;;;1.20;0.30;;;17.10;99.90;;;;;;5104713;28;20071;-74
2023/07/11 02:10:14;;;;;;;;;;;17.10;99.90;;;;;;5097266;28;20039;-74
2023/07/11 02:12:40;;;;;;;0.17;0.17;;;17.00;99.90;;;;;;5067281;28;19966;-74
2023/07/11 02:15:06;;;;;;;0.50;0.30;;;17.00;99.90;;;;;;5100410;28;20532;-74
2023/07/11 02:17:32;;;;;;;;;;;16.90;99.90;;;;;;5070309;28;20118;-74
2023/07/11 02:19:57;;;;;;;0.38;0.22;;;16.90;99.90;;;;;;5101139;28;19998;-74
2023/07/11 02:22:23;;;;;;;;;;;16.90;99.90;;;;;;5068232;28;20611;-74
2023/07/11 02:24:49;;;;;;;0.50;0.40;;;16.90;99.90;;;;;;5094922;28;19926;-74
2023/07/11 02:27:14;;;;;;;0.63;0.45;;;16.90;99.90;;;;;;5077819;28;20425;-74
2023/07/11 02:29:40;;;;;;;0.30;0.30;;;16.80;99.90;;;;;;5080127;28;20058;-74
2023/07/11 02:32:06;;;;;;;0.65;0.20;;;16.80;99.90;;;;;;5080554;28;20042;-74
2023/07/11 02:34:32;;;;;;;0.55;0.20;;;16.80;99.90;;;;;;5101145;28;20467;-75
2023/07/11 02:36:57;;;;;;;;;;;16.90;43.40;;;;;;5105239;28;20075;-74
2023/07/11 02:39:23;;;;;;;1.60;0.55;;;16.90;1.00;;;;;;5106056;28;19923;-74
2023/07/11 02:41:49;;;;;;;0.20;0.20;;;16.90;1.00;;;;;;5099118;28;20040;-74
2023/07/11 02:44:15;;;;;;;0.20;0.20;;;17.00;99.90;;;;;;5089087;28;20055;-74
2023/07/11 02:46:40;;;;;;;0.40;0.30;;;17.00;99.90;;;;;;5101564;28;20108;-74
2023/07/11 02:49:10;;;;;;;0.35;0.20;;;17.00;99.30;;;;;;5098008;28;20043;-74
2023/07/11 02:51:38;;;;;;;0.30;0.30;;;17.00;1.00;;;;;;5103384;28;20051;-75
2023/07/11 02:54:04;;;;;;;0.50;0.30;;;17.10;99.90;;;;;;5083885;28;20430;-74
2023/07/11 02:56:29;;;;;;;;;;;17.10;99.90;;;;;;5080665;28;20027;-74
2023/07/11 02:58:59;;;;;;;0.22;0.20;;;17.20;99.90;;;;;;5107754;28;19968;-74
2023/07/11 03:01:25;;;;;;;0.25;0.20;;;17.10;99.90;;;;;;5103385;28;20549;-74
2023/07/11 03:03:50;;;;;;;;;;;17.20;99.90;;;;;;5059615;28;20123;-74
2023/07/11 03:06:18;;;;;;;0.60;0.43;;;17.20;99.90;;;;;;5097610;28;19916;-74
2023/07/11 03:08:44;;;;;;;0.47;0.30;;;17.20;99.90;;;;;;5098920;28;20036;-74
2023/07/11 03:11:09;;;;;;;;;;;17.20;99.90;;;;;;5100508;28;20135;-74
2023/07/11 03:13:36;;;;;;;0.93;0.35;;;17.20;99.90;;;;;;5100160;28;19926;-74
2023/07/11 03:16:03;;;;;;;0.30;0.30;;;17.10;99.90;;;;;;5098528;28;20126;-74
2023/07/11 03:18:29;;;;;;;0.50;0.40;;;17.20;99.90;;;;;;5100579;28;20032;-74
2023/07/11 03:20:57;;;;;;;;;;;17.10;99.90;;;;;;5101652;28;20147;-74
2023/07/11 03:23:22;;;;;;;0.20;0.20;;;17.20;99.90;;;;;;5102672;28;19965;-74
2023/07/11 03:25:48;;;;;;;;;;;17.10;99.90;;;;;;5101723;28;20447;-74
2023/07/11 03:28:14;;;;;;;0.40;0.30;;;17.10;99.90;;;;;;5103776;28;19927;-74
2023/07/11 03:30:39;;;;;;;;;;;17.10;99.90;;;;;;5102814;28;20054;-74
2023/07/11 03:33:05;;;;;;;0.38;0.30;;;17.10;99.90;;;;;;5100178;28;20336;-74
2023/07/11 03:35:31;;;;;;;0.52;0.30;;;17.10;99.90;;;;;;5099953;28;20047;-74
2023/07/11 03:37:57;;;;;;;0.50;0.40;;;17.10;1.00;;;;;;5098720;28;20051;-74
2023/07/11 03:40:24;;;;;;;;;;;17.00;1.00;;;;;;5100712;28;20312;-74
2023/07/11 03:42:50;;;;;;;0.30;0.30;;;17.10;1.00;;;;;;5096018;28;19923;-74
2023/07/11 03:45:15;;;;;;;0.68;0.40;;;17.00;1.00;;;;;;5066107;28;20160;-74
2023/07/11 03:47:41;;;;;;;0.60;0.38;;;17.00;11.10;;;;;;5101933;28;20470;-74
2023/07/11 03:50:07;;;;;;;0.38;0.38;;;17.10;42.50;;;;;;5092721;28;20071;-74
2023/07/11 03:52:34;;;;;;;0.30;0.28;;;17.10;68.60;;;;;;5101005;28;20047;-74
2023/07/11 03:55:00;;;;;;;0.20;0.20;;;17.00;88.90;;;;;;5095041;28;20036;-74
2023/07/11 03:57:26;;;;;;;0.35;0.30;;;17.10;93.10;;;;;;5101133;28;20039;-74
2023/07/11 03:59:51;;;;;;;;;;;17.10;93.30;;;;;;5102203;28;20701;-74
2023/07/11 04:02:17;;;;;;;0.60;0.43;;;17.10;84.90;;;;;;5098786;28;19964;-74
2023/07/11 04:04:43;;;;;;;;;;;17.10;82.10;;;;;;5080914;28;20082;-74
2023/07/11 04:07:08;;;;;;;0.68;0.30;;;17.10;72.80;;;;;;5099700;28;20068;-74
2023/07/11 04:09:38;;;;;;;0.40;0.20;;;17.20;73.60;;;;;;5079207;28;20040;-74
2023/07/11 04:12:04;;;;;;;0.63;0.40;;;17.20;63.90;;;;;;5100849;28;20047;-74
2023/07/11 04:14:30;;;;;;;0.60;0.38;;;17.20;59.20;;;;;;5095831;28;20499;-74
2023/07/11 04:16:56;;;;;;;;;;;17.20;58.60;;;;;;5098690;28;20047;-74
2023/07/11 04:19:21;;;;;;;0.40;0.40;;;17.20;54.30;;;;;;5095770;28;20379;-74
2023/07/11 04:21:47;;;;;;;;;;;17.30;43.70;;;;;;5096404;28;20035;-74
2023/07/11 04:24:12;;;;;;;0.70;0.45;;;17.30;37.50;;;;;;5076129;28;19920;-74
2023/07/11 04:26:38;;;;;;;1.23;0.40;;;17.30;38.40;;;;;;5094692;28;20047;-74
2023/07/11 04:29:04;;;;;;;1.35;0.70;;;17.40;48.30;;;;;;5082608;28;20044;-74
2023/07/11 04:31:29;;;;;;;;;;;17.40;85.40;;;;;;5072707;28;20044;-74
2023/07/11 04:33:55;;;;;;;1.30;0.60;;;17.40;62.80;;;;;;5079384;28;19928;-74
2023/07/11 04:36:21;;;;;;;1.38;0.63;;;17.40;66.80;;;;;;5049184;28;20118;-74
2023/07/11 04:38:47;;;;;;;1.50;0.77;;;17.50;53.50;;;;;;5097641;28;20040;-74
2023/07/11 04:41:12;;;;;;;0.95;0.55;;;17.50;53.30;;;;;;5077755;28;20090;-73
2023/07/11 04:43:39;;;;;;;;;;;17.50;56.60;;;;;;5057416;28;20486;-73
2023/07/11 04:46:05;;;;;;;0.75;0.52;;;17.60;71.00;;;;;;5103894;28;19924;-74
2023/07/11 04:48:32;;;;;;;;;;;17.60;56.50;;;;;;5076827;28;20051;-74
2023/07/11 04:50:59;;;;;;;1.10;0.52;;;17.50;58.80;;;;;;5057352;28;19924;-74
2023/07/11 04:53:26;;;;;;;2.38;0.90;;;17.60;79.30;;;;;;5059162;28;20081;-74
2023/07/11 04:56:00;;;;;;;0.68;0.60;;;17.60;92.30;;;;;;5076082;28;20054;-74
2023/07/11 04:58:29;;;;;;;0.85;0.50;;;17.60;95.10;;;;;;5079729;28;20043;-74
2023/07/11 05:01:16;;;;;;;0.73;0.50;;;17.60;95.30;;;;;;5079368;28;20054;-74
2023/07/11 05:03:44;;;;;;;1.23;0.70;;;17.60;98.40;;;;;;5088855;28;20058;-74
2023/07/11 05:06:12;;;;;;;1.65;0.77;;;17.60;98.30;;;;;;5085655;28;20394;-73
2023/07/11 05:08:38;;;;;;;0.38;0.30;;;17.60;99.90;;;;;;5070187;28;20108;-73
2023/07/11 05:11:12;;;;;;;1.05;0.57;;;17.70;99.90;;;;;;5082771;28;20450;-73
2023/07/11 05:13:38;;;;;;;1.00;0.60;;;17.70;99.90;;;;;;5069098;28;20062;-74
2023/07/11 05:16:06;;;;;;;;;;;17.70;99.70;;;;;;5091813;28;20035;-74
2023/07/11 05:18:34;;;;;;;1.15;0.60;;;17.80;99.90;;;;;;5073662;28;19975;-76
2023/07/11 05:21:01;;;;;;;1.40;0.90;;;17.90;99.90;;;;;;5085654;28;20050;-72
2023/07/11 05:23:30;;;;;;;1.05;0.60;;;18.00;4.10;;;;;;5075751;28;20043;-74
2023/07/11 05:25:59;;;;;;;1.15;0.75;;;18.10;1.00;;;;;;5090519;28;20069;-74
2023/07/11 05:28:25;;;;;;;1.35;1.00;;;18.20;1.00;;;;;;5081565;28;20074;-73
2023/07/11 05:30:51;;;;;;;;;;;18.40;1.00;;;;;;5108955;28;20131;-73
2023/07/11 05:33:17;;;;;;;1.05;0.70;;;18.60;99.90;;;;;;5093941;28;19919;-74
2023/07/11 05:36:15;;;;;;;1.80;1.00;;;18.70;99.90;;;;;;5088583;28;20374;-74
2023/07/11 05:38:41;;;;;;;1.63;0.70;;;18.80;93.70;;;;;;5067097;28;20142;-74
2023/07/11 05:41:07;;;;;;;;;;;19.00;1.00;;;;;;5067140;28;20040;-74
2023/07/11 05:43:33;;;;;;;0.95;0.65;;;19.10;1.00;;;;;;5082960;28;19977;-73
2023/07/11 05:45:58;;;;;;;;;;;19.20;99.90;;;;;;5089846;28;20398;-73
2023/07/11 05:48:24;;;;;;;1.92;1.00;;;19.30;99.90;;;;;;5087165;28;19958;-74
2023/07/11 05:50:57;;;;;;;;;;;19.30;94.20;;;;;;5080667;28;20074;-74
2023/07/11 05:53:23;;;;;;;2.28;1.10;;;19.40;99.90;;;;;;5085247;28;19996;-74
2023/07/11 05:55:48;;;;;;;;;;;19.50;99.90;;;;;;5069337;28;20440;-74
2023/07/11 05:58:14;;;;;;;2.17;1.15;;;19.50;97.50;;;;;;5086014;28;19923;-74
2023/07/11 06:00:39;;;;;;;;;;;19.50;99.90;;;;;;5085408;28;20052;-74
2023/07/11 06:03:05;;;;;;;1.00;0.90;;;19.50;99.90;;;;;;5058338;28;20350;-74
2023/07/11 06:05:31;;;;;;;;;;;19.60;65.40;;;;;;5049466;28;20070;-74
2023/07/11 06:07:56;;;;;;;2.25;1.20;;;19.60;99.90;;;;;;5094992;28;20010;-74
2023/07/11 06:10:22;;;;;;;;;;;19.70;46.80;;;;;;5058667;28;20078;-74
2023/07/11 06:12:48;;;;;;;2.45;1.30;;;19.70;93.90;;;;;;5078415;28;19916;-74
2023/07/11 06:15:13;;;;;;;;;;;19.70;1.00;;;;;;5083697;28;20036;-74
2023/07/11 06:17:39;;;;;;;1.27;0.80;;;19.70;23.40;;;;;;5086084;28;19930;-74
2023/07/11 06:20:09;;;;;;;;;;;19.60;75.90;;;;;;5090973;28;20039;-74
2023/07/11 06:22:37;;;;;;;2.03;1.17;;;19.60;99.90;;;;;;5089323;28;19927;-74
2023/07/11 06:25:03;;;;;;;2.38;1.00;;;19.60;99.90;;;;;;5091559;28;20039;-74
2023/07/11 06:27:29;;;;;;;;;;;19.70;99.90;;;;;;5064386;28;20123;-74
2023/07/11 06:29:55;;;;;;;1.55;0.80;;;19.90;99.90;;;;;;5091179;28;20341;-74
2023/07/11 06:32:21;;;;;;;1.17;0.85;;;20.00;99.90;;;;;;5077974;28;20491;-74
2023/07/11 06:34:46;;;;;;;;;;;20.20;99.90;;;;;;5067600;28;20047;-74
2023/07/11 06:37:12;;;;;;;1.55;1.10;;;20.30;99.90;;;;;;5079920;28;20082;-74
2023/07/11 06:39:38;;;;;;;;;;;20.50;70.60;;;;;;5066225;28;20176;-74
2023/07/11 06:42:04;;;;;;;2.15;1.20;;;20.60;1.00;;;;;;5093966;28;19924;-74
2023/07/11 06:44:30;;;;;;;2.33;1.20;;;20.80;99.90;;;;;;5051958;28;20071;-74
2023/07/11 06:46:56;;;;;;;1.05;0.70;;;20.90;99.90;;;;;;5091979;28;20497;-74
2023/07/11 06:49:22;;;;;;;1.55;1.10;;;21.00;99.90;;;;;;5062768;28;20151;-76
2023/07/11 06:51:49;;;;;;;2.55;1.25;;;21.10;99.90;;;;;;5089658;28;20060;-75
2023/07/11 06:54:16;;;;;;;2.50;1.10;;;21.20;99.90;;;;;;5091408;28;20052;-75
2023/07/11 06:56:42;;;;;;;2.05;1.20;;;21.20;99.90;;;;;;5075286;28;20036;-75
2023/07/11 06:59:08;;;;;;;1.63;1.05;;;21.30;99.90;;;;;;5082001;28;20052;-75
2023/07/11 07:01:34;;;;;;;1.90;1.10;;;21.30;99.90;;;;;;5055395;28;20076;-75
2023/07/11 07:04:00;;;;;;;1.70;1.20;;;21.40;99.90;;;;;;5074705;28;20474;-75
2023/07/11 07:06:26;;;;;;;2.17;1.20;;;21.50;99.90;;;;;;5091073;28;20116;-75
2023/07/11 07:08:52;;;;;;;1.85;1.23;;;21.60;1.00;;;;;;5074001;28;20044;-75
2023/07/11 07:11:18;;;;;;;2.33;1.40;;;21.80;1.00;;;;;;5087552;28;20048;-75
2023/07/11 07:13:44;;;;;;;2.20;1.00;;;21.80;1.00;;;;;;5088030;28;20067;-75
2023/07/11 07:16:10;;;;;;;2.47;1.10;;;21.90;99.90;;;;;;5091130;28;20047;-75
2023/07/11 07:18:38;;;;;;;2.05;1.10;;;22.00;1.00;;;;;;5062475;28;20047;-75
2023/07/11 07:21:04;;;;;;;1.35;1.05;;;22.00;99.90;;;;;;5089727;28;20044;-75
2023/07/11 07:23:33;;;;;;;1.42;1.10;;;22.20;99.90;;;;;;5074110;28;20047;-75
2023/07/11 07:26:01;;;;;;;1.55;1.25;;;22.40;1.00;;;;;;5088833;28;20040;-75
2023/07/11 07:28:28;;;;;;;2.83;1.63;;;22.50;99.90;;;;;;5079131;28;20032;-75
2023/07/11 07:30:55;;;;;;;1.65;1.00;;;22.60;99.90;;;;;;5073658;28;20039;-75
2023/07/11 07:33:25;;;;;;;2.65;1.20;;;22.60;99.90;;;;;;5090608;28;20089;-75
2023/07/11 07:35:57;;;;;;;1.50;0.93;;;22.70;99.90;;;;;;5087264;28;20045;-75
2023/07/11 07:38:22;;;;;;;2.65;1.38;;;22.80;99.90;;;;;;5061674;28;20573;-75
2023/07/11 07:40:52;;;;;;;2.13;1.33;;;22.80;99.90;;;;;;5073880;28;20051;-75
2023/07/11 07:43:18;;;;;;;1.63;1.00;;;22.80;99.90;;;;;;5090346;28;20046;-75
2023/07/11 07:45:51;;;;;;;1.83;1.20;;;22.90;99.90;;;;;;5090262;28;20048;-75
2023/07/11 07:48:17;;;;;;;2.92;1.15;;;22.90;99.90;;;;;;5090648;28;20063;-75
2023/07/11 07:50:43;;;;;;;1.95;1.17;;;23.00;99.90;;;;;;5090109;28;20090;-75
2023/07/11 07:53:10;;;;;;;1.58;1.00;;;23.00;99.90;;;;;;5090165;28;20067;-75
2023/07/11 07:55:37;;;;;;;1.75;1.00;;;23.10;99.90;;;;;;5087228;28;20097;-75
2023/07/11 07:58:02;;;;;;;2.30;1.10;;;23.10;99.90;;;;;;5070061;28;20036;-75
2023/07/11 08:00:28;;;;;;;1.35;1.00;;;23.20;99.90;;;;;;5059465;28;20446;-75
2023/07/11 08:02:54;;;;;;;1.05;0.95;;;23.20;99.90;;;;;;5090448;28;20048;-75
2023/07/11 08:05:20;;;;;;;1.65;1.20;;;23.30;99.90;;;;;;5082230;28;20422;-75
2023/07/11 08:07:46;;;;;;;4.18;1.40;;;23.40;99.90;;;;;;5052595;28;20040;-75
2023/07/11 08:10:12;;;;;;;2.30;1.30;;;23.50;99.90;;;;;;5085266;28;20113;-75
2023/07/11 08:12:38;;;;;;;1.30;1.00;;;23.70;97.50;;;;;;5090266;28;20043;-75
2023/07/11 08:15:04;;;;;;;2.35;1.05;;;23.90;99.90;;;;;;5075591;28;20044;-75
2023/07/11 08:17:31;;;;;;;2.00;1.20;;;24.00;99.90;;;;;;5089582;28;20139;-75
2023/07/11 08:19:57;;;;;;;2.13;1.20;;;24.00;99.90;;;;;;5088760;28;20056;-75
2023/07/11 08:22:23;;;;;;;3.50;1.42;;;24.00;99.90;;;;;;5074599;28;20138;-75
2023/07/11 08:24:48;;;;;;;1.60;1.20;;;24.00;93.10;;;;;;5086813;28;20075;-75
2023/07/11 08:27:14;;;;;;;1.92;1.15;;;24.00;57.90;;;;;;5082324;28;20051;-75
2023/07/11 08:29:44;;;;;;;1.77;1.00;;;24.00;20.10;;;;;;5085066;28;20052;-75
2023/07/11 08:32:14;;;;;;;1.75;0.90;;;24.10;99.90;;;;;;5080876;28;20432;-74
2023/07/11 08:34:40;;;;;;;1.88;1.10;;;24.20;28.90;;;;;;5058462;28;20152;-74
2023/07/11 08:37:06;;;;;;;1.65;1.10;;;24.20;1.00;;;;;;5089468;28;20562;-74
2023/07/11 08:39:32;;;;;;;2.38;1.42;;;24.30;1.00;;;;;;5090791;28;20113;-74
2023/07/11 08:42:03;;;;;;;1.85;1.40;;;24.20;24.20;;;;;;5089389;28;20089;-74
2023/07/11 08:44:35;;;;;;;2.40;1.40;;;24.10;1.00;;;;;;5089259;28;20048;-75
2023/07/11 08:47:08;;;;;;;1.92;1.10;;;23.90;99.90;;;;;;5071329;28;20100;-74
2023/07/11 08:49:46;;;;;;;1.10;0.98;;;24.00;1.00;;;;;;5085342;28;20052;-74
2023/07/11 08:52:13;;;;;;;1.58;1.00;;;24.00;21.80;;;;;;5071004;28;20082;-74
2023/07/11 08:55:21;;;;;;;1.38;1.05;;;24.20;55.50;;;;;;5074187;28;20044;-74
2023/07/11 08:58:04;;;;;;;2.45;1.45;;;24.70;1.00;;;;;;5067621;28;20044;-74
2023/07/11 09:00:31;;;;;;;3.33;1.35;;;25.30;1.00;;;;;;5075392;28;20079;-75
2023/07/11 09:03:06;;;;;;;2.10;1.27;;;25.50;99.90;;;;;;5088868;28;20050;-74
2023/07/11 09:05:41;;;;;;;1.50;1.02;;;25.50;99.90;;;;;;5089036;28;20436;-74
2023/07/11 09:08:20;;;;;;;1.60;1.10;;;25.50;99.90;;;;;;5085681;28;20043;-74
2023/07/11 09:11:09;;;;;;;2.95;1.50;;;25.60;99.90;;;;;;5068648;28;20116;-75
2023/07/11 09:14:02;;;;;;;2.10;1.30;;;25.90;99.90;;;;;;5084984;28;20406;-74
2023/07/11 09:16:51;;;;;;;2.55;1.40;;;26.20;99.90;;;;;;5079097;28;20044;-74
2023/07/11 09:19:25;;;;;;;2.72;1.30;;;26.40;99.90;;;;;;5085738;28;20456;-74
2023/07/11 09:22:19;;;;;;;3.17;1.60;;;26.60;99.90;;;;;;5088815;28;20050;-74
2023/07/11 09:24:56;;;;;;;2.70;1.35;;;26.60;66.80;;;;;;5068916;28;20072;-74
2023/07/11 09:27:25;;;;;;;3.35;1.40;;;26.60;64.50;;;;;;5082527;28;20475;-75
2023/07/11 09:29:53;;;;;;;4.20;1.50;;;26.60;9.30;;;;;;5068731;28;20488;-74
2023/07/11 09:32:20;;;;;;;2.33;1.27;;;26.70;12.80;;;;;;5064455;28;20060;-74
2023/07/11 09:34:48;;;;;;;2.63;1.40;;;26.80;69.40;;;;;;5088731;28;20055;-74
2023/07/11 09:37:27;;;;;;;1.73;1.10;;;27.10;18.80;;;;;;5077953;28;20269;-74
2023/07/11 09:40:09;;;;;;;3.40;1.20;;;27.40;13.20;;;;;;5087230;28;20052;-75
2023/07/11 09:42:51;;;;;;;3.03;1.20;;;27.40;1.00;;;;;;5088841;28;20054;-74
2023/07/11 09:45:19;;;;;;;2.40;1.10;;;27.30;1.00;;;;;;5088695;28;20051;-75
2023/07/11 09:47:58;;;;;;;2.72;1.40;;;27.40;1.00;;;;;;5071642;28;20081;-75
2023/07/11 09:50:54;;;;;;;1.75;0.90;;;27.50;1.00;;;;;;5075607;28;20116;-74
2023/07/11 09:53:23;;;;;;;2.45;1.00;;;27.60;1.00;;;;;;5088370;28;20048;-75
2023/07/11 09:56:03;;;;;;;1.70;0.90;;;27.80;1.00;;;;;;5072395;28;20072;-74
2023/07/11 09:58:32;;;;;;;1.50;1.10;;;28.00;1.00;;;;;;5084967;28;20131;-74
2023/07/11 10:01:02;;;;;;;2.50;1.20;;;28.00;1.00;;;;;;5075595;28;20116;-75
2023/07/11 10:03:30;;;;;;;2.28;1.15;;;28.00;1.00;;;;;;5070885;28;20044;-74
2023/07/11 10:05:56;;;;;;;3.78;1.40;;;27.80;1.00;;;;;;5079481;28;20066;-75
2023/07/11 10:08:25;;;;;;;1.95;1.00;;;27.80;99.90;;;;;;5069274;28;20464;-75
2023/07/11 10:10:53;;;;;;;2.70;1.25;;;28.00;1.00;;;;;;5084824;28;20411;-75
2023/07/11 10:13:21;;;;;;;1.90;1.00;;;27.80;99.90;;;;;;5085881;28;20046;-75
2023/07/11 10:15:54;;;;;;;4.03;1.48;;;27.70;99.90;;;;;;5078031;28;20458;-75
2023/07/11 10:18:24;;;;;;;2.15;1.15;;;27.40;99.90;;;;;;5074650;28;20052;-75
2023/07/11 10:21:10;;;;;;;2.05;1.02;;;27.30;1.00;;;;;;5091908;28;20098;-75
2023/07/11 10:23:36;;;;;;;1.52;1.00;;;27.20;1.00;;;;;;5088503;28;20102;-75
2023/07/11 10:26:15;;;;;;;2.15;1.10;;;27.10;1.00;;;;;;5088210;28;20043;-75
2023/07/11 10:28:44;;;;;;;2.85;1.48;;;27.20;1.00;;;;;;5081357;28;20381;-75
2023/07/11 10:31:25;;;;;;;2.10;1.17;;;27.10;1.00;;;;;;5074141;28;20526;-75
2023/07/11 10:34:04;;;;;;;3.38;1.17;;;27.20;1.00;;;;;;5091910;28;20043;-75
2023/07/11 10:36:46;;;;;;;3.40;1.42;;;27.20;1.00;;;;;;5091709;28;20043;-75
2023/07/11 10:39:19;;;;;;;2.17;1.10;;;27.20;1.00;;;;;;5062005;28;20094;-74
2023/07/11 10:41:57;;;;;;;3.25;1.25;;;27.20;1.00;;;;;;5073953;28;20048;-74
2023/07/11 10:44:34;;;;;;;2.30;1.38;;;27.20;1.00;;;;;;5071333;28;20043;-74
2023/07/11 10:47:00;;;;;;;2.72;1.45;;;27.30;1.00;;;;;;5061440;28;20040;-75
2023/07/11 10:49:30;;;;;;;3.20;1.40;;;27.50;1.00;;;;;;5091427;28;20051;-74
2023/07/11 10:52:19;;;;;;;4.15;1.45;;;27.30;1.00;;;;;;5090908;28;20052;-75
2023/07/11 10:54:59;;;;;;;2.30;1.25;;;27.60;1.00;;;;;;5060257;28;20136;-75
2023/07/11 10:57:45;;;;;;;3.90;1.20;;;27.60;1.00;;;;;;5091133;28;20142;-75
2023/07/11 11:00:43;;;;;;;2.95;1.70;;;27.40;1.00;;;;;;5073179;28;20051;-75
2023/07/11 11:03:31;;;;;;;4.20;1.45;;;27.30;1.00;;;;;;5068278;28;20082;-74
2023/07/11 11:06:31;;;;;;;2.33;1.13;;;27.40;1.00;;;;;;5084471;28;20449;-73
2023/07/11 11:09:09;;;;;;;3.20;1.60;;;27.50;1.00;;;;;;5084285;28;20060;-73
2023/07/11 11:11:43;;;;;;;3.20;1.23;;;27.70;1.00;;;;;;5085078;28;20044;-74
2023/07/11 11:14:16;;;;;;;4.05;1.40;;;27.80;1.00;;;;;;5083970;28;20046;-74
2023/07/11 11:17:20;;;;;;;2.63;1.23;;;27.60;1.00;;;;;;5084148;28;20503;-74
2023/07/11 11:20:09;;;;;;;3.17;1.10;;;27.80;1.00;;;;;;5067531;28;20051;-75
2023/07/11 11:23:03;;;;;;;2.45;1.10;;;27.80;1.00;;;;;;5075146;28;20043;-75
2023/07/11 11:25:45;;;;;;;2.08;1.30;;;28.00;1.00;;;;;;5064520;28;20459;-75
2023/07/11 11:28:31;;;;;;;2.13;1.30;;;28.10;1.00;;;;;;5084314;28;20127;-75
2023/07/11 11:31:18;;;;;;;3.97;1.33;;;28.30;1.00;;;;;;5079498;28;20040;-75
2023/07/11 11:33:53;;;;;;;2.83;1.20;;;28.30;99.90;;;;;;5087553;28;20120;-74
2023/07/11 11:36:48;;;;;;;2.58;1.33;;;28.40;99.90;;;;;;5078629;28;20152;-75
2023/07/11 11:39:35;;;;;;;3.38;1.38;;;28.60;1.00;;;;;;5077261;28;20854;-75
2023/07/11 11:42:06;;;;;;;3.30;1.30;;;28.80;99.90;;;;;;5059283;28;20044;-75
2023/07/11 11:44:51;;;;;;;2.08;1.40;;;29.20;99.90;;;;;;5082788;28;20045;-75
2023/07/11 11:47:18;;;;;;;2.35;1.30;;;29.30;99.90;;;;;;5076696;28;20040;-75
2023/07/11 11:49:45;;;;;;;2.20;1.20;;;29.20;99.90;;;;;;5055622;28;20406;-73
2023/07/11 11:52:11;;;;;;;3.55;1.27;;;28.80;99.90;;;;;;5076519;28;20123;-74
2023/07/11 11:54:43;;;;;;;3.38;1.40;;;28.40;99.90;;;;;;5087291;28;20052;-75
2023/07/11 11:57:18;;;;;;;2.00;1.15;;;28.40;99.90;;;;;;5089476;28;20043;-74
2023/07/11 11:59:44;;;;;;;3.30;1.50;;;28.30;99.90;;;;;;5090169;28;20060;-75
2023/07/11 12:02:36;;;;;;;2.53;1.27;;;28.40;99.90;;;;;;5075728;28;20047;-74
2023/07/11 12:05:08;;;;;;;2.35;1.33;;;28.80;99.90;;;;;;5089260;28;20467;-74
2023/07/11 12:07:39;;;;;;;2.53;1.40;;;28.70;99.90;;;;;;5086187;28;20515;-74
2023/07/11 12:10:23;;;;;;;2.63;1.40;;;28.70;99.90;;;;;;5081550;28;20133;-74
2023/07/11 12:12:55;;;;;;;3.22;1.27;;;29.00;99.90;;;;;;5079551;28;20039;-74
2023/07/11 12:15:27;;;;;;;3.78;1.45;;;29.60;99.90;;;;;;5087122;28;20070;-74
2023/07/11 12:17:54;;;;;;;2.10;1.25;;;29.60;99.90;;;;;;5078702;28;20044;-74
2023/07/11 12:20:29;;;;;;;1.90;1.23;;;29.40;99.90;;;;;;5077707;28;20067;-74
2023/07/11 12:23:15;;;;;;;2.42;1.20;;;29.20;99.90;;;;;;5082937;28;20078;-74
2023/07/11 12:26:01;;;;;;;4.00;1.40;;;29.10;99.90;;;;;;5068984;28;20052;-75
2023/07/11 12:28:26;;;;;;;3.70;1.40;;;28.80;99.90;;;;;;5079323;28;20127;-74
2023/07/11 12:31:25;;;;;;;3.45;1.73;;;28.90;99.90;;;;;;5082332;28;20124;-75
2023/07/11 12:33:58;;;;;;;3.67;1.55;;;28.70;99.90;;;;;;5032795;28;20053;-74
2023/07/11 12:36:36;;;;;;;3.63;1.80;;;28.80;99.90;;;;;;5064247;28;20025;-74
2023/07/11 12:39:20;;;;;;;4.40;1.80;;;28.50;99.90;;;;;;5083042;28;20117;-74
2023/07/11 12:42:05;;;;;;;3.03;1.40;;;28.20;99.90;;;;;;5100647;28;20457;-74
2023/07/11 12:44:34;;;;;;;2.03;1.35;;;28.00;1.00;;;;;;5086480;28;20039;-74
2023/07/11 12:47:04;;;;;;;4.10;1.90;;;27.70;1.00;;;;;;5074702;28;20045;-74
2023/07/11 12:49:30;;;;;;;3.92;1.25;;;27.70;1.00;;;;;;5076673;28;20457;-73
2023/07/11 12:52:11;;;;;;;5.13;1.70;;;27.80;1.00;;;;;;5055730;28;20084;-73
2023/07/11 12:54:37;;;;;;;2.67;1.60;;;27.90;1.00;;;;;;5084769;28;20578;-74
2023/07/11 12:57:07;;;;;;;2.67;1.20;;;28.00;1.00;;;;;;5076291;28;20123;-74
2023/07/11 12:59:33;;;;;;;4.60;1.77;;;28.20;1.00;;;;;;5081725;28;20040;-74
2023/07/11 13:02:04;;;;;;;5.20;1.67;;;28.20;1.00;;;;;;5073438;28;20127;-74
2023/07/11 13:04:46;;;;;;;2.72;1.52;;;28.20;1.00;;;;;;5075114;28;20119;-74
2023/07/11 13:07:19;;;;;;;3.50;1.60;;;28.00;1.00;;;;;;5082665;28;20103;-73
2023/07/11 13:09:52;;;;;;;2.50;1.33;;;27.80;1.00;;;;;;5080170;28;20078;-74
2023/07/11 13:19:33;;;;;;;2.30;1.40;;;27.50;1.00;;;;;;5819324;22;20505;31
2023/07/11 13:21:58;;;;;;;2.83;1.67;;;27.50;1.00;;;;;;4899225;23;20084;-73
2023/07/11 13:24:28;;;;;;;4.47;1.80;;;27.50;1.00;;;;;;4898792;29;20094;-72